sensor_id;sensor_type;location;lat;lon;timestamp;temperature;humidity
29211;DHT22;16250;49.932;10.980;2022-07-22T00:01:26;19.50;99.90
29211;DHT22;16250;49.932;10.980;2022-07-22T00:03:52;19.40;99.90
29211;DHT22;16250;49.932;10.980;2022-07-22T00:06:17;19.20;99.90
29211;DHT22;16250;49.932;10.980;2022-07-22T00:08:43;19.20;99.90
29211;DHT22;16250;49.932;10.980;2022-07-22T00:11:08;19.00;99.90
29211;DHT22;16250;49.932;10.980;2022-07-22T00:13:34;18.50;99.90
29211;DHT22;16250;49.932;10.980;2022-07-22T00:16:00;18.70;99.90
29211;DHT22;16250;49.932;10.980;2022-07-22T00:18:25;18.80;99.90
29211;DHT22;16250;49.932;10.980;2022-07-22T00:20:51;18.80;99.90
29211;DHT22;16250;49.932;10.980;2022-07-22T00:23:17;18.90;99.90
29211;DHT22;16250;49.932;10.980;2022-07-22T00:25:42;18.70;99.90
29211;DHT22;16250;49.932;10.980;2022-07-22T00:28:08;18.60;99.90
29211;DHT22;16250;49.932;10.980;2022-07-22T00:30:33;18.60;99.90
29211;DHT22;16250;49.932;10.980;2022-07-22T00:32:59;18.70;99.90
29211;DHT22;16250;49.932;10.980;2022-07-22T00:35:24;18.70;99.90
29211;DHT22;16250;49.932;10.980;2022-07-22T00:37:50;18.60;99.90
29211;DHT22;16250;49.932;10.980;2022-07-22T00:40:16;18.50;99.90
29211;DHT22;16250;49.932;10.980;2022-07-22T00:42:41;18.30;99.90
29211;DHT22;16250;49.932;10.980;2022-07-22T00:45:07;18.30;99.90
29211;DHT22;16250;49.932;10.980;2022-07-22T00:47:34;18.30;99.90
29211;DHT22;16250;49.932;10.980;2022-07-22T00:50:00;18.30;99.90
29211;DHT22;16250;49.932;10.980;2022-07-22T00:52:26;18.30;99.90
29211;DHT22;16250;49.932;10.980;2022-07-22T00:54:52;18.30;99.90
29211;DHT22;16250;49.932;10.980;2022-07-22T00:57:18;18.30;99.90
29211;DHT22;16250;49.932;10.980;2022-07-22T00:59:44;18.40;99.90
29211;DHT22;16250;49.932;10.980;2022-07-22T01:02:09;18.40;99.90
29211;DHT22;16250;49.932;10.980;2022-07-22T01:04:36;18.30;99.90
29211;DHT22;16250;49.932;10.980;2022-07-22T01:07:02;18.30;99.90
29211;DHT22;16250;49.932;10.980;2022-07-22T01:09:27;18.30;99.90
29211;DHT22;16250;49.932;10.980;2022-07-22T01:11:53;18.20;99.90
29211;DHT22;16250;49.932;10.980;2022-07-22T01:14:18;17.90;99.90
29211;DHT22;16250;49.932;10.980;2022-07-22T01:16:44;17.90;99.90
29211;DHT22;16250;49.932;10.980;2022-07-22T01:19:10;17.90;99.90
29211;DHT22;16250;49.932;10.980;2022-07-22T01:21:35;17.70;99.90
29211;DHT22;16250;49.932;10.980;2022-07-22T01:24:02;17.90;99.90
29211;DHT22;16250;49.932;10.980;2022-07-22T01:26:28;17.70;99.90
29211;DHT22;16250;49.932;10.980;2022-07-22T01:28:53;17.60;99.90
29211;DHT22;16250;49.932;10.980;2022-07-22T01:31:19;17.70;99.90
29211;DHT22;16250;49.932;10.980;2022-07-22T01:33:45;17.70;99.90
29211;DHT22;16250;49.932;10.980;2022-07-22T01:36:10;17.70;99.90
29211;DHT22;16250;49.932;10.980;2022-07-22T01:38:36;17.50;99.90
29211;DHT22;16250;49.932;10.980;2022-07-22T01:41:02;17.20;99.90
29211;DHT22;16250;49.932;10.980;2022-07-22T01:43:28;17.30;99.90
29211;DHT22;16250;49.932;10.980;2022-07-22T01:45:54;17.40;99.90
29211;DHT22;16250;49.932;10.980;2022-07-22T01:48:21;17.30;99.90
29211;DHT22;16250;49.932;10.980;2022-07-22T01:50:46;17.20;99.90
29211;DHT22;16250;49.932;10.980;2022-07-22T01:53:12;17.20;99.90
29211;DHT22;16250;49.932;10.980;2022-07-22T01:55:38;17.10;99.90
29211;DHT22;16250;49.932;10.980;2022-07-22T01:58:04;17.30;99.90
29211;DHT22;16250;49.932;10.980;2022-07-22T02:00:31;17.20;99.90
29211;DHT22;16250;49.932;10.980;2022-07-22T02:02:57;17.10;99.90
29211;DHT22;16250;49.932;10.980;2022-07-22T02:05:22;16.90;99.90
29211;DHT22;16250;49.932;10.980;2022-07-22T02:07:48;17.10;99.90
29211;DHT22;16250;49.932;10.980;2022-07-22T02:10:14;17.10;99.90
29211;DHT22;16250;49.932;10.980;2022-07-22T02:12:40;17.30;99.90
29211;DHT22;16250;49.932;10.980;2022-07-22T02:15:05;17.30;99.90
29211;DHT22;16250;49.932;10.980;2022-07-22T02:17:33;17.00;99.90
29211;DHT22;16250;49.932;10.980;2022-07-22T02:19:59;16.90;99.90
29211;DHT22;16250;49.932;10.980;2022-07-22T02:22:24;16.70;99.90
29211;DHT22;16250;49.932;10.980;2022-07-22T02:24:50;17.20;99.90
29211;DHT22;16250;49.932;10.980;2022-07-22T02:27:15;17.10;99.90
29211;DHT22;16250;49.932;10.980;2022-07-22T02:29:41;17.00;99.90
29211;DHT22;16250;49.932;10.980;2022-07-22T02:32:07;16.60;99.90
29211;DHT22;16250;49.932;10.980;2022-07-22T02:34:32;16.40;99.90
29211;DHT22;16250;49.932;10.980;2022-07-22T02:36:58;16.60;99.90
29211;DHT22;16250;49.932;10.980;2022-07-22T02:39:23;16.70;99.90
29211;DHT22;16250;49.932;10.980;2022-07-22T02:41:49;16.60;99.90
29211;DHT22;16250;49.932;10.980;2022-07-22T02:44:14;16.90;99.90
29211;DHT22;16250;49.932;10.980;2022-07-22T02:46:40;16.90;99.90
29211;DHT22;16250;49.932;10.980;2022-07-22T02:49:06;16.90;99.90
29211;DHT22;16250;49.932;10.980;2022-07-22T02:51:31;17.00;99.90
29211;DHT22;16250;49.932;10.980;2022-07-22T02:53:57;16.80;99.90
29211;DHT22;16250;49.932;10.980;2022-07-22T02:56:22;16.40;99.90
29211;DHT22;16250;49.932;10.980;2022-07-22T02:58:48;16.00;99.90
29211;DHT22;16250;49.932;10.980;2022-07-22T03:01:18;16.30;99.90
29211;DHT22;16250;49.932;10.980;2022-07-22T03:03:44;16.60;99.90
29211;DHT22;16250;49.932;10.980;2022-07-22T03:06:10;16.60;99.90
29211;DHT22;16250;49.932;10.980;2022-07-22T03:08:36;16.80;99.90
29211;DHT22;16250;49.932;10.980;2022-07-22T03:11:02;16.80;99.90
29211;DHT22;16250;49.932;10.980;2022-07-22T03:13:27;17.20;99.90
29211;DHT22;16250;49.932;10.980;2022-07-22T03:15:53;17.20;99.90
29211;DHT22;16250;49.932;10.980;2022-07-22T03:18:19;17.00;99.90
29211;DHT22;16250;49.932;10.980;2022-07-22T03:20:44;17.10;99.90
29211;DHT22;16250;49.932;10.980;2022-07-22T03:23:10;17.00;99.90
29211;DHT22;16250;49.932;10.980;2022-07-22T03:25:35;16.90;99.90
29211;DHT22;16250;49.932;10.980;2022-07-22T03:28:01;16.70;99.90
29211;DHT22;16250;49.932;10.980;2022-07-22T03:30:27;16.70;99.90
29211;DHT22;16250;49.932;10.980;2022-07-22T03:32:53;16.70;99.90
29211;DHT22;16250;49.932;10.980;2022-07-22T03:35:19;16.80;99.90
29211;DHT22;16250;49.932;10.980;2022-07-22T03:37:44;16.80;99.90
29211;DHT22;16250;49.932;10.980;2022-07-22T03:40:10;16.60;99.90
29211;DHT22;16250;49.932;10.980;2022-07-22T03:42:36;16.70;99.90
29211;DHT22;16250;49.932;10.980;2022-07-22T03:45:02;16.60;99.90
29211;DHT22;16250;49.932;10.980;2022-07-22T03:47:27;16.70;99.90
29211;DHT22;16250;49.932;10.980;2022-07-22T03:49:53;16.70;99.90
29211;DHT22;16250;49.932;10.980;2022-07-22T03:52:19;16.40;99.90
29211;DHT22;16250;49.932;10.980;2022-07-22T03:54:45;16.50;99.90
29211;DHT22;16250;49.932;10.980;2022-07-22T03:57:10;16.60;99.90
29211;DHT22;16250;49.932;10.980;2022-07-22T03:59:36;16.50;99.90
29211;DHT22;16250;49.932;10.980;2022-07-22T04:02:02;16.70;99.90
29211;DHT22;16250;49.932;10.980;2022-07-22T04:04:28;16.80;99.90
29211;DHT22;16250;49.932;10.980;2022-07-22T04:06:54;17.00;99.90
29211;DHT22;16250;49.932;10.980;2022-07-22T04:09:20;17.00;99.90
29211;DHT22;16250;49.932;10.980;2022-07-22T04:11:46;17.20;99.90
29211;DHT22;16250;49.932;10.980;2022-07-22T04:14:11;17.20;99.90
29211;DHT22;16250;49.932;10.980;2022-07-22T04:16:37;17.20;99.90
29211;DHT22;16250;49.932;10.980;2022-07-22T04:19:03;17.10;99.90
29211;DHT22;16250;49.932;10.980;2022-07-22T04:21:29;17.30;99.90
29211;DHT22;16250;49.932;10.980;2022-07-22T04:23:55;17.20;99.90
29211;DHT22;16250;49.932;10.980;2022-07-22T04:26:21;16.90;99.90
29211;DHT22;16250;49.932;10.980;2022-07-22T04:28:46;16.50;99.90
29211;DHT22;16250;49.932;10.980;2022-07-22T04:31:12;16.30;99.90
29211;DHT22;16250;49.932;10.980;2022-07-22T04:33:38;16.90;99.90
29211;DHT22;16250;49.932;10.980;2022-07-22T04:36:03;17.20;99.90
29211;DHT22;16250;49.932;10.980;2022-07-22T04:38:29;17.30;99.90
29211;DHT22;16250;49.932;10.980;2022-07-22T04:40:55;16.80;99.90
29211;DHT22;16250;49.932;10.980;2022-07-22T04:43:21;16.50;99.90
29211;DHT22;16250;49.932;10.980;2022-07-22T04:45:47;16.20;99.90
29211;DHT22;16250;49.932;10.980;2022-07-22T04:48:12;16.40;99.90
29211;DHT22;16250;49.932;10.980;2022-07-22T04:50:38;16.50;99.90
29211;DHT22;16250;49.932;10.980;2022-07-22T04:53:03;16.80;99.90
29211;DHT22;16250;49.932;10.980;2022-07-22T04:55:29;17.10;99.90
29211;DHT22;16250;49.932;10.980;2022-07-22T04:57:55;16.90;99.90
29211;DHT22;16250;49.932;10.980;2022-07-22T05:00:21;17.20;99.90
29211;DHT22;16250;49.932;10.980;2022-07-22T05:02:46;17.30;99.90
29211;DHT22;16250;49.932;10.980;2022-07-22T05:05:12;17.20;99.90
29211;DHT22;16250;49.932;10.980;2022-07-22T05:07:38;17.40;99.90
29211;DHT22;16250;49.932;10.980;2022-07-22T05:10:04;17.50;99.90
29211;DHT22;16250;49.932;10.980;2022-07-22T05:12:30;17.80;99.90
29211;DHT22;16250;49.932;10.980;2022-07-22T05:14:56;18.10;99.90
29211;DHT22;16250;49.932;10.980;2022-07-22T05:17:21;18.30;99.90
29211;DHT22;16250;49.932;10.980;2022-07-22T05:19:47;18.10;99.90
29211;DHT22;16250;49.932;10.980;2022-07-22T05:22:12;18.00;99.90
29211;DHT22;16250;49.932;10.980;2022-07-22T05:24:38;18.10;99.90
29211;DHT22;16250;49.932;10.980;2022-07-22T05:27:04;18.10;99.90
29211;DHT22;16250;49.932;10.980;2022-07-22T05:29:30;18.40;99.90
29211;DHT22;16250;49.932;10.980;2022-07-22T05:31:56;18.40;99.90
29211;DHT22;16250;49.932;10.980;2022-07-22T05:34:22;18.60;99.90
29211;DHT22;16250;49.932;10.980;2022-07-22T05:36:47;18.50;99.90
29211;DHT22;16250;49.932;10.980;2022-07-22T05:39:13;18.60;99.90
29211;DHT22;16250;49.932;10.980;2022-07-22T05:41:39;18.90;99.90
29211;DHT22;16250;49.932;10.980;2022-07-22T05:44:05;18.50;99.90
29211;DHT22;16250;49.932;10.980;2022-07-22T05:46:31;18.50;99.90
29211;DHT22;16250;49.932;10.980;2022-07-22T05:48:57;18.60;99.90
29211;DHT22;16250;49.932;10.980;2022-07-22T05:51:24;18.70;99.90
29211;DHT22;16250;49.932;10.980;2022-07-22T05:53:49;19.00;99.90
29211;DHT22;16250;49.932;10.980;2022-07-22T05:56:15;18.70;99.90
29211;DHT22;16250;49.932;10.980;2022-07-22T05:58:42;18.90;99.90
29211;DHT22;16250;49.932;10.980;2022-07-22T06:01:09;19.10;99.90
29211;DHT22;16250;49.932;10.980;2022-07-22T06:03:35;19.00;99.90
29211;DHT22;16250;49.932;10.980;2022-07-22T06:06:01;18.90;99.90
29211;DHT22;16250;49.932;10.980;2022-07-22T06:08:28;19.10;99.90
29211;DHT22;16250;49.932;10.980;2022-07-22T06:10:53;19.20;99.90
29211;DHT22;16250;49.932;10.980;2022-07-22T06:13:19;19.20;99.90
29211;DHT22;16250;49.932;10.980;2022-07-22T06:15:45;19.00;99.90
29211;DHT22;16250;49.932;10.980;2022-07-22T06:18:10;19.10;99.90
29211;DHT22;16250;49.932;10.980;2022-07-22T06:20:36;18.90;99.90
29211;DHT22;16250;49.932;10.980;2022-07-22T06:23:02;19.30;99.90
29211;DHT22;16250;49.932;10.980;2022-07-22T06:25:27;19.10;99.90
29211;DHT22;16250;49.932;10.980;2022-07-22T06:27:53;19.00;99.90
29211;DHT22;16250;49.932;10.980;2022-07-22T06:30:19;19.30;99.90
29211;DHT22;16250;49.932;10.980;2022-07-22T06:32:45;19.40;99.90
29211;DHT22;16250;49.932;10.980;2022-07-22T06:35:11;19.40;99.90
29211;DHT22;16250;49.932;10.980;2022-07-22T06:37:36;20.00;99.90
29211;DHT22;16250;49.932;10.980;2022-07-22T06:40:03;20.00;99.90
29211;DHT22;16250;49.932;10.980;2022-07-22T06:42:29;20.20;99.90
29211;DHT22;16250;49.932;10.980;2022-07-22T06:44:54;20.30;99.90
29211;DHT22;16250;49.932;10.980;2022-07-22T06:47:20;20.60;99.90
29211;DHT22;16250;49.932;10.980;2022-07-22T06:49:45;20.20;99.90
29211;DHT22;16250;49.932;10.980;2022-07-22T06:52:11;20.30;99.90
29211;DHT22;16250;49.932;10.980;2022-07-22T06:54:36;20.40;99.90
29211;DHT22;16250;49.932;10.980;2022-07-22T06:57:02;20.30;99.90
29211;DHT22;16250;49.932;10.980;2022-07-22T06:59:28;20.30;99.90
29211;DHT22;16250;49.932;10.980;2022-07-22T07:01:53;20.30;99.90
29211;DHT22;16250;49.932;10.980;2022-07-22T07:04:19;20.30;99.90
29211;DHT22;16250;49.932;10.980;2022-07-22T07:06:45;20.30;99.90
29211;DHT22;16250;49.932;10.980;2022-07-22T07:09:11;20.40;99.90
29211;DHT22;16250;49.932;10.980;2022-07-22T07:11:36;20.50;99.90
29211;DHT22;16250;49.932;10.980;2022-07-22T07:14:02;20.70;99.90
29211;DHT22;16250;49.932;10.980;2022-07-22T07:16:28;20.60;99.90
29211;DHT22;16250;49.932;10.980;2022-07-22T07:18:53;20.60;99.90
29211;DHT22;16250;49.932;10.980;2022-07-22T07:21:19;20.60;99.90
29211;DHT22;16250;49.932;10.980;2022-07-22T07:23:44;20.60;99.90
29211;DHT22;16250;49.932;10.980;2022-07-22T07:26:10;21.00;99.90
29211;DHT22;16250;49.932;10.980;2022-07-22T07:28:36;20.80;99.90
29211;DHT22;16250;49.932;10.980;2022-07-22T07:31:01;20.80;99.90
29211;DHT22;16250;49.932;10.980;2022-07-22T07:33:27;21.00;99.90
29211;DHT22;16250;49.932;10.980;2022-07-22T07:35:53;21.10;99.90
29211;DHT22;16250;49.932;10.980;2022-07-22T07:38:19;21.00;99.90
29211;DHT22;16250;49.932;10.980;2022-07-22T07:40:44;21.20;99.90
29211;DHT22;16250;49.932;10.980;2022-07-22T07:43:10;21.10;99.90
29211;DHT22;16250;49.932;10.980;2022-07-22T07:45:36;21.00;99.90
29211;DHT22;16250;49.932;10.980;2022-07-22T07:48:02;21.30;99.90
29211;DHT22;16250;49.932;10.980;2022-07-22T07:50:28;21.50;99.90
29211;DHT22;16250;49.932;10.980;2022-07-22T07:52:54;21.50;99.90
29211;DHT22;16250;49.932;10.980;2022-07-22T07:55:20;21.60;99.90
29211;DHT22;16250;49.932;10.980;2022-07-22T07:57:46;21.70;99.90
29211;DHT22;16250;49.932;10.980;2022-07-22T08:00:15;21.80;99.90
29211;DHT22;16250;49.932;10.980;2022-07-22T08:02:41;21.60;99.90
29211;DHT22;16250;49.932;10.980;2022-07-22T08:05:08;21.80;99.90
29211;DHT22;16250;49.932;10.980;2022-07-22T08:07:34;21.80;99.90
29211;DHT22;16250;49.932;10.980;2022-07-22T08:10:00;22.00;99.90
29211;DHT22;16250;49.932;10.980;2022-07-22T08:12:25;22.00;99.90
29211;DHT22;16250;49.932;10.980;2022-07-22T08:14:51;21.80;99.90
29211;DHT22;16250;49.932;10.980;2022-07-22T08:17:17;22.10;99.90
29211;DHT22;16250;49.932;10.980;2022-07-22T08:19:42;22.10;99.90
29211;DHT22;16250;49.932;10.980;2022-07-22T08:22:08;22.20;99.90
29211;DHT22;16250;49.932;10.980;2022-07-22T08:24:33;22.30;99.90
29211;DHT22;16250;49.932;10.980;2022-07-22T08:26:59;22.40;99.90
29211;DHT22;16250;49.932;10.980;2022-07-22T08:29:25;22.50;99.90
29211;DHT22;16250;49.932;10.980;2022-07-22T08:31:51;22.30;99.90
29211;DHT22;16250;49.932;10.980;2022-07-22T08:34:16;22.70;99.90
29211;DHT22;16250;49.932;10.980;2022-07-22T08:36:42;23.30;99.90
29211;DHT22;16250;49.932;10.980;2022-07-22T08:39:07;23.00;99.90
29211;DHT22;16250;49.932;10.980;2022-07-22T08:41:36;23.00;99.90
29211;DHT22;16250;49.932;10.980;2022-07-22T08:44:03;23.60;99.90
29211;DHT22;16250;49.932;10.980;2022-07-22T08:46:29;23.90;99.90
29211;DHT22;16250;49.932;10.980;2022-07-22T08:48:55;23.50;99.90
29211;DHT22;16250;49.932;10.980;2022-07-22T08:51:21;23.30;99.90
29211;DHT22;16250;49.932;10.980;2022-07-22T08:53:47;23.10;99.90
29211;DHT22;16250;49.932;10.980;2022-07-22T08:56:13;23.30;99.90
29211;DHT22;16250;49.932;10.980;2022-07-22T08:58:40;23.60;99.90
29211;DHT22;16250;49.932;10.980;2022-07-22T09:01:11;23.50;99.90
29211;DHT22;16250;49.932;10.980;2022-07-22T09:03:49;23.80;99.90
29211;DHT22;16250;49.932;10.980;2022-07-22T09:06:16;23.90;99.90
29211;DHT22;16250;49.932;10.980;2022-07-22T09:08:59;23.70;99.90
29211;DHT22;16250;49.932;10.980;2022-07-22T09:11:27;23.70;99.90
29211;DHT22;16250;49.932;10.980;2022-07-22T09:13:55;23.90;99.90
29211;DHT22;16250;49.932;10.980;2022-07-22T09:16:44;24.20;99.90
29211;DHT22;16250;49.932;10.980;2022-07-22T09:19:11;24.10;99.90
29211;DHT22;16250;49.932;10.980;2022-07-22T09:21:43;24.40;99.90
29211;DHT22;16250;49.932;10.980;2022-07-22T09:24:27;24.90;99.90
29211;DHT22;16250;49.932;10.980;2022-07-22T09:26:55;25.20;99.90
29211;DHT22;16250;49.932;10.980;2022-07-22T09:29:20;24.90;99.90
29211;DHT22;16250;49.932;10.980;2022-07-22T09:31:50;25.10;99.90
29211;DHT22;16250;49.932;10.980;2022-07-22T09:34:30;24.90;99.90
29211;DHT22;16250;49.932;10.980;2022-07-22T09:36:58;24.70;99.90
29211;DHT22;16250;49.932;10.980;2022-07-22T09:39:28;24.90;99.90
29211;DHT22;16250;49.932;10.980;2022-07-22T09:42:12;24.80;99.90
29211;DHT22;16250;49.932;10.980;2022-07-22T09:44:41;25.00;99.90
29211;DHT22;16250;49.932;10.980;2022-07-22T09:47:26;24.90;99.90
29211;DHT22;16250;49.932;10.980;2022-07-22T09:49:52;24.90;99.90
29211;DHT22;16250;49.932;10.980;2022-07-22T09:52:19;25.20;99.90
29211;DHT22;16250;49.932;10.980;2022-07-22T09:54:45;25.30;99.90
29211;DHT22;16250;49.932;10.980;2022-07-22T09:57:10;25.10;99.90
29211;DHT22;16250;49.932;10.980;2022-07-22T09:59:36;25.20;99.90
29211;DHT22;16250;49.932;10.980;2022-07-22T10:02:03;25.40;99.90
29211;DHT22;16250;49.932;10.980;2022-07-22T10:04:31;25.90;99.90
29211;DHT22;16250;49.932;10.980;2022-07-22T10:06:58;25.70;99.90
29211;DHT22;16250;49.932;10.980;2022-07-22T10:09:25;25.40;99.90
29211;DHT22;16250;49.932;10.980;2022-07-22T10:11:51;25.80;99.90
29211;DHT22;16250;49.932;10.980;2022-07-22T10:14:18;26.10;99.90
29211;DHT22;16250;49.932;10.980;2022-07-22T10:16:45;26.30;99.90
29211;DHT22;16250;49.932;10.980;2022-07-22T10:19:11;26.10;99.90
29211;DHT22;16250;49.932;10.980;2022-07-22T10:21:36;26.40;99.90
29211;DHT22;16250;49.932;10.980;2022-07-22T10:24:13;26.30;99.90
29211;DHT22;16250;49.932;10.980;2022-07-22T10:26:50;26.20;99.90
29211;DHT22;16250;49.932;10.980;2022-07-22T10:29:39;26.40;99.90
29211;DHT22;16250;49.932;10.980;2022-07-22T10:37:36;26.50;99.90
29211;DHT22;16250;49.932;10.980;2022-07-22T10:40:23;26.30;99.90
29211;DHT22;16250;49.932;10.980;2022-07-22T10:48:06;27.10;99.90
29211;DHT22;16250;49.932;10.980;2022-07-22T10:55:33;26.90;99.90
29211;DHT22;16250;49.932;10.980;2022-07-22T10:57:59;27.00;99.90
29211;DHT22;16250;49.932;10.980;2022-07-22T11:00:26;27.40;99.90
29211;DHT22;16250;49.932;10.980;2022-07-22T11:02:52;27.70;99.90
29211;DHT22;16250;49.932;10.980;2022-07-22T11:05:27;27.50;99.90
29211;DHT22;16250;49.932;10.980;2022-07-22T11:07:54;27.90;99.90
29211;DHT22;16250;49.932;10.980;2022-07-22T11:10:20;27.80;99.90
29211;DHT22;16250;49.932;10.980;2022-07-22T11:12:47;28.00;99.90
29211;DHT22;16250;49.932;10.980;2022-07-22T11:15:13;27.70;99.90
29211;DHT22;16250;49.932;10.980;2022-07-22T11:17:39;28.00;99.90
29211;DHT22;16250;49.932;10.980;2022-07-22T11:20:07;27.70;99.90
29211;DHT22;16250;49.932;10.980;2022-07-22T11:22:34;27.80;99.90
29211;DHT22;16250;49.932;10.980;2022-07-22T11:25:01;28.40;99.90
29211;DHT22;16250;49.932;10.980;2022-07-22T11:27:28;28.60;99.90
29211;DHT22;16250;49.932;10.980;2022-07-22T11:29:54;28.70;99.90
29211;DHT22;16250;49.932;10.980;2022-07-22T11:32:22;28.70;99.90
29211;DHT22;16250;49.932;10.980;2022-07-22T11:34:48;28.30;99.90
29211;DHT22;16250;49.932;10.980;2022-07-22T11:37:19;28.50;99.90
29211;DHT22;16250;49.932;10.980;2022-07-22T11:39:46;28.40;99.90
29211;DHT22;16250;49.932;10.980;2022-07-22T11:42:12;28.60;99.90
29211;DHT22;16250;49.932;10.980;2022-07-22T11:44:39;28.40;99.90
29211;DHT22;16250;49.932;10.980;2022-07-22T11:47:06;28.20;99.90
29211;DHT22;16250;49.932;10.980;2022-07-22T11:49:35;28.80;99.90
29211;DHT22;16250;49.932;10.980;2022-07-22T11:52:02;29.10;99.90
29211;DHT22;16250;49.932;10.980;2022-07-22T11:54:29;28.70;99.90
29211;DHT22;16250;49.932;10.980;2022-07-22T11:56:54;28.80;99.90
29211;DHT22;16250;49.932;10.980;2022-07-22T11:59:21;29.00;99.90
29211;DHT22;16250;49.932;10.980;2022-07-22T12:01:48;29.30;99.90
29211;DHT22;16250;49.932;10.980;2022-07-22T12:04:19;28.60;99.90
29211;DHT22;16250;49.932;10.980;2022-07-22T12:06:46;28.80;99.90
29211;DHT22;16250;49.932;10.980;2022-07-22T12:09:14;29.00;99.90
29211;DHT22;16250;49.932;10.980;2022-07-22T12:11:43;28.80;99.90
29211;DHT22;16250;49.932;10.980;2022-07-22T12:14:10;29.30;99.90
29211;DHT22;16250;49.932;10.980;2022-07-22T12:16:37;29.30;99.90
29211;DHT22;16250;49.932;10.980;2022-07-22T12:19:11;29.30;99.90
29211;DHT22;16250;49.932;10.980;2022-07-22T12:24:16;29.30;99.40
29211;DHT22;16250;49.932;10.980;2022-07-22T12:26:48;30.10;99.50
29211;DHT22;16250;49.932;10.980;2022-07-22T12:29:22;30.80;99.40
29211;DHT22;16250;49.932;10.980;2022-07-22T12:31:55;31.00;98.90
29211;DHT22;16250;49.932;10.980;2022-07-22T12:34:43;31.10;98.60
29211;DHT22;16250;49.932;10.980;2022-07-22T12:37:29;31.10;98.90
29211;DHT22;16250;49.932;10.980;2022-07-22T12:40:19;30.30;98.00
29211;DHT22;16250;49.932;10.980;2022-07-22T12:43:08;30.60;98.10
29211;DHT22;16250;49.932;10.980;2022-07-22T12:45:36;31.60;97.70
29211;DHT22;16250;49.932;10.980;2022-07-22T12:50:41;31.30;96.90
29211;DHT22;16250;49.932;10.980;2022-07-22T12:53:16;31.30;97.00
29211;DHT22;16250;49.932;10.980;2022-07-22T12:58:08;31.10;96.90
29211;DHT22;16250;49.932;10.980;2022-07-22T13:00:36;31.10;96.40
29211;DHT22;16250;49.932;10.980;2022-07-22T13:03:02;31.70;95.80
29211;DHT22;16250;49.932;10.980;2022-07-22T13:05:28;31.40;96.80
29211;DHT22;16250;49.932;10.980;2022-07-22T13:07:54;31.90;96.20
29211;DHT22;16250;49.932;10.980;2022-07-22T13:10:22;31.80;95.30
29211;DHT22;16250;49.932;10.980;2022-07-22T13:12:48;32.30;95.80
29211;DHT22;16250;49.932;10.980;2022-07-22T13:15:14;32.80;94.80
29211;DHT22;16250;49.932;10.980;2022-07-22T13:17:40;32.20;95.10
29211;DHT22;16250;49.932;10.980;2022-07-22T13:20:07;31.60;94.90
29211;DHT22;16250;49.932;10.980;2022-07-22T13:22:33;32.00;95.40
29211;DHT22;16250;49.932;10.980;2022-07-22T13:24:59;32.40;95.50
29211;DHT22;16250;49.932;10.980;2022-07-22T13:27:24;32.60;94.30
29211;DHT22;16250;49.932;10.980;2022-07-22T13:29:50;32.60;93.70
29211;DHT22;16250;49.932;10.980;2022-07-22T13:32:16;32.90;94.10
29211;DHT22;16250;49.932;10.980;2022-07-22T13:34:41;32.80;93.60
29211;DHT22;16250;49.932;10.980;2022-07-22T13:37:07;33.10;93.40
29211;DHT22;16250;49.932;10.980;2022-07-22T13:39:33;32.00;93.80
29211;DHT22;16250;49.932;10.980;2022-07-22T13:41:58;32.20;94.20
29211;DHT22;16250;49.932;10.980;2022-07-22T13:44:24;32.20;93.30
29211;DHT22;16250;49.932;10.980;2022-07-22T13:46:50;32.50;93.30
29211;DHT22;16250;49.932;10.980;2022-07-22T13:49:15;32.90;93.40
29211;DHT22;16250;49.932;10.980;2022-07-22T13:51:41;33.20;93.10
29211;DHT22;16250;49.932;10.980;2022-07-22T13:54:07;33.30;92.60
29211;DHT22;16250;49.932;10.980;2022-07-22T13:56:33;33.50;92.70
29211;DHT22;16250;49.932;10.980;2022-07-22T13:58:59;33.80;91.90
29211;DHT22;16250;49.932;10.980;2022-07-22T14:01:25;34.50;91.80
29211;DHT22;16250;49.932;10.980;2022-07-22T14:03:51;34.90;91.60
29211;DHT22;16250;49.932;10.980;2022-07-22T14:06:17;34.70;91.20
29211;DHT22;16250;49.932;10.980;2022-07-22T14:08:42;34.00;90.50
29211;DHT22;16250;49.932;10.980;2022-07-22T14:11:08;33.70;91.70
29211;DHT22;16250;49.932;10.980;2022-07-22T14:13:34;34.30;91.30
29211;DHT22;16250;49.932;10.980;2022-07-22T14:16:00;35.20;89.90
29211;DHT22;16250;49.932;10.980;2022-07-22T14:18:46;35.20;89.90
29211;DHT22;16250;49.932;10.980;2022-07-22T14:21:12;35.20;88.90
29211;DHT22;16250;49.932;10.980;2022-07-22T14:23:37;36.10;88.20
29211;DHT22;16250;49.932;10.980;2022-07-22T14:26:03;35.60;86.10
29211;DHT22;16250;49.932;10.980;2022-07-22T14:28:28;35.60;86.90
29211;DHT22;16250;49.932;10.980;2022-07-22T14:30:54;35.40;87.00
29211;DHT22;16250;49.932;10.980;2022-07-22T14:33:19;35.80;87.10
29211;DHT22;16250;49.932;10.980;2022-07-22T14:35:45;35.70;86.00
29211;DHT22;16250;49.932;10.980;2022-07-22T14:38:11;35.60;85.70
29211;DHT22;16250;49.932;10.980;2022-07-22T14:40:36;35.40;85.80
29211;DHT22;16250;49.932;10.980;2022-07-22T14:43:02;36.90;84.80
29211;DHT22;16250;49.932;10.980;2022-07-22T14:45:27;36.10;83.90
29211;DHT22;16250;49.932;10.980;2022-07-22T14:47:53;35.60;83.50
29211;DHT22;16250;49.932;10.980;2022-07-22T14:50:18;35.70;85.80
29211;DHT22;16250;49.932;10.980;2022-07-22T14:52:44;36.00;84.30
29211;DHT22;16250;49.932;10.980;2022-07-22T14:55:10;34.60;84.60
29211;DHT22;16250;49.932;10.980;2022-07-22T14:57:35;35.20;84.70
29211;DHT22;16250;49.932;10.980;2022-07-22T15:00:01;34.70;84.40
29211;DHT22;16250;49.932;10.980;2022-07-22T15:02:27;35.70;84.10
29211;DHT22;16250;49.932;10.980;2022-07-22T15:04:53;35.10;84.60
29211;DHT22;16250;49.932;10.980;2022-07-22T15:07:18;35.00;84.50
29211;DHT22;16250;49.932;10.980;2022-07-22T15:09:44;36.30;83.30
29211;DHT22;16250;49.932;10.980;2022-07-22T15:12:09;35.80;82.30
29211;DHT22;16250;49.932;10.980;2022-07-22T15:14:35;36.30;83.20
29211;DHT22;16250;49.932;10.980;2022-07-22T15:17:00;35.20;81.80
29211;DHT22;16250;49.932;10.980;2022-07-22T15:19:26;36.20;81.80
29211;DHT22;16250;49.932;10.980;2022-07-22T15:21:52;37.50;81.10
29211;DHT22;16250;49.932;10.980;2022-07-22T15:24:17;36.40;81.00
29211;DHT22;16250;49.932;10.980;2022-07-22T15:26:43;36.00;81.80
29211;DHT22;16250;49.932;10.980;2022-07-22T15:29:08;36.90;80.60
29211;DHT22;16250;49.932;10.980;2022-07-22T15:31:34;36.40;80.80
29211;DHT22;16250;49.932;10.980;2022-07-22T15:33:59;36.90;80.20
29211;DHT22;16250;49.932;10.980;2022-07-22T15:36:25;37.70;78.50